createdAt,value
2022-11-03T00:00:48.714Z,100713.72
2022-11-03T00:03:50.372Z,100708.22
2022-11-03T00:06:53.908Z,100716.59
2022-11-03T00:09:55.616Z,100712.59
2022-11-03T00:12:57.215Z,100713.63
2022-11-03T00:16:00.186Z,100711.28
2022-11-03T00:19:01.818Z,100724.84
2022-11-03T00:22:03.488Z,100705.31
2022-11-03T00:25:06.111Z,100710.44
2022-11-03T00:28:07.813Z,100706.31
2022-11-03T00:31:13.123Z,100695.09
2022-11-03T00:34:14.769Z,100694.81
2022-11-03T00:37:16.543Z,100681.13
2022-11-03T00:40:18.215Z,100686.03
2022-11-03T00:43:19.880Z,100674.47
2022-11-03T00:46:24.033Z,100655.06
2022-11-03T00:49:25.675Z,100651.72
2022-11-03T00:52:27.348Z,100656.09
2022-11-03T00:55:29.030Z,100652.19
2022-11-03T00:58:31.268Z,100653.47
2022-11-03T01:01:45.256Z,100647.22
2022-11-03T01:05:07.057Z,100649.84
2022-11-03T01:08:08.781Z,100649.84
2022-11-03T01:11:31.427Z,100650.69
2022-11-03T01:14:36.642Z,100651.81
2022-11-03T01:17:40.707Z,100657.53
2022-11-03T01:20:42.328Z,100646.91
2022-11-03T01:23:44.035Z,100645.06
2022-11-03T01:26:45.703Z,100631.72
2022-11-03T01:29:47.281Z,100639.31
2022-11-03T01:32:50.246Z,100625.66
2022-11-03T01:35:53.258Z,100625.53
2022-11-03T01:38:55.993Z,100621.91
2022-11-03T01:41:58.225Z,100619.41
2022-11-03T01:44:59.940Z,100623.28
2022-11-03T01:48:02.957Z,100618.66
2022-11-03T01:51:06.376Z,100614.22
2022-11-03T01:54:12.496Z,100616.34
2022-11-03T01:57:20.150Z,100612.19
2022-11-03T02:00:22.076Z,100600.50
2022-11-03T02:03:26.873Z,100606.47
2022-11-03T02:06:31.042Z,100609.84
2022-11-03T02:09:33.156Z,100608.84
2022-11-03T02:12:35.632Z,100595.28
2022-11-03T02:15:38.927Z,100594.53
2022-11-03T02:18:43.570Z,100590.38
2022-11-03T02:21:55.496Z,100574.78
2022-11-03T02:25:03.445Z,100575.69
2022-11-03T02:28:06.720Z,100570.13
2022-11-03T02:31:15.147Z,100558.41
2022-11-03T02:34:22.714Z,100557.06
2022-11-03T02:37:28.987Z,100558.75
2022-11-03T02:40:34.766Z,100550.13
2022-11-03T02:43:38.756Z,100550.97
2022-11-03T02:46:43.129Z,100537.91
2022-11-03T02:49:47.485Z,100518.25
2022-11-03T02:52:49.486Z,100522.56
2022-11-03T02:55:58.134Z,100516.69
2022-11-03T02:59:02.821Z,100507.66
2022-11-03T03:02:09.256Z,100503.72
2022-11-03T03:05:14.440Z,100490.81
2022-11-03T03:08:16.984Z,100501.75
2022-11-03T03:11:36.972Z,100492.97
2022-11-03T03:14:44.012Z,100485.75
2022-11-03T03:17:50.738Z,100485.50
2022-11-03T03:20:56.899Z,100479.94
2022-11-03T03:24:02.554Z,100479.25
2022-11-03T03:27:09.577Z,100480.63
2022-11-03T03:30:13.925Z,100483.41
2022-11-03T03:33:17.704Z,100478.97
2022-11-03T03:36:22.004Z,100473.22
2022-11-03T03:39:27.775Z,100466.69
2022-11-03T03:42:30.993Z,100466.44
2022-11-03T03:45:36.323Z,100457.53
2022-11-03T03:48:37.934Z,100457.22
2022-11-03T03:51:41.003Z,100448.91
2022-11-03T03:54:42.779Z,100449.88
2022-11-03T03:57:44.841Z,100451.81
2022-11-03T04:00:47.850Z,100436.16
2022-11-03T04:03:49.622Z,100442.16
2022-11-03T04:07:11.207Z,100442.22
2022-11-03T04:10:13.203Z,100443.00
2022-11-03T04:13:47.425Z,100435.56
2022-11-03T04:17:09.330Z,100441.94
2022-11-03T04:20:31.889Z,100436.16
2022-11-03T04:23:33.600Z,100436.91
2022-11-03T04:26:35.219Z,100429.06
2022-11-03T04:29:36.845Z,100430.81
2022-11-03T04:32:40.016Z,100433.25
2022-11-03T04:35:44.333Z,100432.97
2022-11-03T04:38:46.592Z,100432.03
2022-11-03T04:41:48.340Z,100431.19
2022-11-03T04:44:50.074Z,100419.91
2022-11-03T04:47:53.955Z,100417.81
2022-11-03T04:50:58.769Z,100410.28
2022-11-03T04:54:03.779Z,100403.31
2022-11-03T04:57:08.689Z,100396.41
2022-11-03T05:00:15.505Z,100401.28
2022-11-03T05:03:23.658Z,100399.94
2022-11-03T05:06:29.776Z,100398.03
2022-11-03T05:09:31.716Z,100393.03
2022-11-03T05:12:33.635Z,100381.72
2022-11-03T05:15:40.764Z,100394.28
2022-11-03T05:18:46.704Z,100389.06
2022-11-03T05:21:50.402Z,100382.72
2022-11-03T05:24:56.369Z,100379.47
2022-11-03T05:27:58.041Z,100376.94
2022-11-03T05:30:59.840Z,100376.13
2022-11-03T05:34:19.983Z,100359.59
2022-11-03T05:37:27.593Z,100362.44
2022-11-03T05:40:29.340Z,100365.16
2022-11-03T05:43:30.954Z,100361.00
2022-11-03T05:46:35.501Z,100360.94
2022-11-03T05:49:38.561Z,100363.88
2022-11-03T05:52:40.826Z,100361.19
2022-11-03T05:55:42.694Z,100353.03
2022-11-03T05:58:46.246Z,100338.44
2022-11-03T06:01:48.588Z,100348.97
2022-11-03T06:04:52.067Z,100332.56
2022-11-03T06:07:55.436Z,100328.25
2022-11-03T06:10:58.380Z,100326.41
2022-11-03T06:14:00.049Z,100317.06
2022-11-03T06:17:05.966Z,100312.69
2022-11-03T06:20:18.775Z,100296.38
2022-11-03T06:23:21.363Z,100298.66
2022-11-03T06:26:25.883Z,100298.38
2022-11-03T06:29:32.308Z,100284.13
2022-11-03T06:32:34.026Z,100298.91
2022-11-03T06:35:37.116Z,100304.09
2022-11-03T06:38:39.344Z,100308.91
2022-11-03T06:41:41.552Z,100308.03
2022-11-03T06:44:45.866Z,100316.97
2022-11-03T06:47:47.723Z,100303.78
2022-11-03T06:50:50.881Z,100298.72
2022-11-03T06:53:54.571Z,100306.13
2022-11-03T06:56:56.259Z,100304.53
2022-11-03T07:00:19.924Z,100297.28
2022-11-03T07:03:24.521Z,100289.03
2022-11-03T07:06:31.268Z,100288.34
2022-11-03T07:09:32.905Z,100286.50
2022-11-03T07:12:34.829Z,100284.81
2022-11-03T07:15:38.181Z,100279.81
2022-11-03T07:18:44.260Z,100270.53
2022-11-03T07:21:50.176Z,100258.22
2022-11-03T07:24:55.051Z,100255.84
2022-11-03T07:27:57.459Z,100243.19
2022-11-03T07:31:01.249Z,100238.75
2022-11-03T07:34:02.917Z,100242.91
2022-11-03T07:37:09.269Z,100231.03
2022-11-03T07:40:14.064Z,100235.16
2022-11-03T07:43:19.321Z,100229.50
2022-11-03T07:46:22.432Z,100211.41
2022-11-03T07:49:29.154Z,100213.13
2022-11-03T07:52:32.177Z,100210.13
2022-11-03T07:55:33.830Z,100199.81
2022-11-03T07:58:38.316Z,100196.75
2022-11-03T08:01:42.735Z,100190.13
2022-11-03T08:04:44.453Z,100182.78
2022-11-03T08:07:47.488Z,100188.94
2022-11-03T08:10:49.199Z,100174.59
2022-11-03T08:13:51.599Z,100174.75
2022-11-03T08:16:53.437Z,100167.13
2022-11-03T08:19:55.183Z,100154.78
2022-11-03T08:23:23.898Z,100142.88
2022-11-03T08:26:19.956Z,100143.63
2022-11-03T08:29:21.701Z,100138.97
2022-11-03T08:32:23.334Z,100135.00
2022-11-03T08:35:28.807Z,100134.63
2022-11-03T08:38:34.513Z,100135.97
2022-11-03T08:41:36.155Z,100125.78
2022-11-03T08:44:37.868Z,100132.31
2022-11-03T08:47:39.481Z,100127.41
2022-11-03T08:50:41.259Z,100132.78
2022-11-03T08:53:44.363Z,100128.38
2022-11-03T08:56:46.615Z,100139.09
2022-11-03T08:59:49.171Z,100145.16
2022-11-03T09:02:50.936Z,100144.19
2022-11-03T09:05:52.644Z,100137.56
2022-11-03T09:12:17.239Z,100125.47
2022-11-03T09:15:18.905Z,100126.16
2022-11-03T09:18:20.575Z,100120.59
2022-11-03T09:21:22.582Z,100117.84
2022-11-03T09:24:25.639Z,100115.81
2022-11-03T09:27:27.396Z,100102.38
2022-11-03T09:30:29.522Z,100092.09
2022-11-03T09:33:31.297Z,100086.19
2022-11-03T09:36:32.993Z,100091.91
2022-11-03T09:39:36.055Z,100077.22
2022-11-03T09:42:39.073Z,100079.22
2022-11-03T09:45:40.722Z,100072.16
2022-11-03T09:48:42.422Z,100055.06
2022-11-03T09:51:44.697Z,100054.78
2022-11-03T09:54:47.719Z,100032.44
2022-11-03T09:57:51.962Z,100024.97
2022-11-03T10:00:53.770Z,100037.19
2022-11-03T10:03:59.423Z,100032.31
2022-11-03T10:07:01.075Z,100016.56
2022-11-03T10:10:05.418Z,100004.34
2022-11-03T10:13:13.429Z,99988.19
2022-11-03T10:16:17.219Z,100001.59
2022-11-03T10:19:19.136Z,99998.03
2022-11-03T10:22:21.080Z,99984.88
2022-11-03T10:25:36.023Z,99991.56
2022-11-03T10:28:38.151Z,99977.97
2022-11-03T10:31:41.701Z,99972.84
2022-11-03T10:34:43.466Z,99961.94
2022-11-03T10:37:45.049Z,99950.94
2022-11-03T10:40:48.830Z,99960.88
2022-11-03T10:44:02.385Z,99954.53
2022-11-03T10:47:06.508Z,99955.91
2022-11-03T10:50:22.478Z,99956.09
2022-11-03T10:53:24.199Z,99937.97
2022-11-03T10:56:27.365Z,99930.06
2022-11-03T10:59:33.319Z,99918.34
2022-11-03T11:02:36.554Z,99904.63
2022-11-03T11:05:44.877Z,99889.84
2022-11-03T11:08:46.846Z,99894.69
2022-11-03T11:12:05.070Z,99887.91
2022-11-03T11:15:40.962Z,99876.41
2022-11-03T11:19:09.901Z,99879.50
2022-11-03T11:22:21.936Z,99866.72
2022-11-03T11:26:02.169Z,99865.47
2022-11-03T11:29:43.568Z,99864.81
2022-11-03T11:33:00.665Z,99851.19
2022-11-03T11:36:05.612Z,99851.75
2022-11-03T11:39:12.363Z,99852.41
2022-11-03T11:42:15.339Z,99851.19
2022-11-03T11:45:55.639Z,99858.88
2022-11-03T11:49:16.983Z,99856.72
2022-11-03T11:52:19.211Z,99855.78
2022-11-03T11:55:28.866Z,99853.81
2022-11-03T11:58:38.833Z,99859.81
2022-11-03T12:01:41.363Z,99854.84
2022-11-03T12:04:47.498Z,99839.13
2022-11-03T12:07:49.761Z,99819.94
2022-11-03T12:10:55.536Z,99807.66
2022-11-03T12:13:57.225Z,99799.25
2022-11-03T12:17:19.593Z,99791.13
2022-11-03T12:20:47.097Z,99784.91
2022-11-03T12:23:48.732Z,99780.47
2022-11-03T12:26:50.862Z,99770.06
2022-11-03T12:29:53.468Z,99760.44
2022-11-03T12:32:55.130Z,99751.72
2022-11-03T12:35:58.186Z,99746.47
2022-11-03T12:38:59.809Z,99754.53
2022-11-03T12:42:01.952Z,99737.81
2022-11-03T12:45:04.090Z,99730.28
2022-11-03T12:48:06.601Z,99717.63
2022-11-03T12:51:10.841Z,99717.63
2022-11-03T12:54:12.574Z,99715.03
2022-11-03T12:57:14.538Z,99710.59
2022-11-03T13:00:17.762Z,99702.78
2022-11-03T13:03:19.467Z,99693.50
2022-11-03T13:06:22.498Z,99700.25
2022-11-03T13:09:24.117Z,99691.09
2022-11-03T13:12:31.445Z,99692.47
2022-11-03T13:15:33.084Z,99685.25
2022-11-03T13:18:34.715Z,99666.78
2022-11-03T13:21:37.681Z,99650.41
2022-11-03T13:24:39.404Z,99646.84
2022-11-03T13:27:41.054Z,99637.34
2022-11-03T13:30:42.718Z,99622.44
2022-11-03T13:33:44.470Z,99613.84
2022-11-03T13:36:47.458Z,99615.81
2022-11-03T13:39:49.156Z,99586.94
2022-11-03T13:42:50.841Z,99566.41
2022-11-03T13:45:53.030Z,99570.34
2022-11-03T13:52:17.624Z,99542.72
2022-11-03T14:05:24.921Z,99514.78
2022-11-03T14:08:27.976Z,99510.19
2022-11-03T14:11:48.389Z,99502.66
2022-11-03T14:14:50.062Z,99488.78
2022-11-03T14:17:51.815Z,99482.13
2022-11-03T14:20:53.477Z,99475.69
2022-11-03T14:23:56.456Z,99472.25
2022-11-03T14:26:58.100Z,99487.72
2022-11-03T14:29:59.740Z,99485.28
2022-11-03T14:33:01.396Z,99477.88
2022-11-03T14:36:03.527Z,99469.44
2022-11-03T14:39:06.533Z,99465.81
2022-11-03T14:42:14.939Z,99455.13
2022-11-03T14:45:16.768Z,99452.50
2022-11-03T14:48:18.359Z,99453.25
2022-11-03T14:51:20.358Z,99443.31
2022-11-03T14:54:23.363Z,99435.75
2022-11-03T14:57:25.079Z,99424.19
2022-11-03T15:00:26.888Z,99414.78
2022-11-03T15:03:28.700Z,99403.19
2022-11-03T15:06:30.429Z,99399.25
2022-11-03T15:09:33.497Z,99387.72
2022-11-03T15:12:35.143Z,99395.47
2022-11-03T15:15:37.177Z,99394.75
2022-11-03T15:18:38.898Z,99395.47
2022-11-03T15:21:40.739Z,99406.97
2022-11-03T15:28:05.662Z,99410.34
2022-11-03T15:31:07.601Z,99413.25
2022-11-03T15:34:09.641Z,99406.84
2022-11-03T15:37:11.429Z,99417.91
2022-11-03T15:40:16.164Z,99406.13
2022-11-03T15:43:17.907Z,99401.59
2022-11-03T15:46:20.300Z,99391.28
2022-11-03T15:49:22.151Z,99388.91
2022-11-03T15:52:24.094Z,99373.66
2022-11-03T15:55:27.145Z,99363.69
2022-11-03T15:58:32.973Z,99352.84
2022-11-03T16:01:35.747Z,99335.00
2022-11-03T16:04:37.673Z,99357.97
2022-11-03T16:07:40.013Z,99351.56
2022-11-03T16:10:49.657Z,99351.25
2022-11-03T16:13:55.530Z,99343.00
2022-11-03T16:16:57.641Z,99340.47
2022-11-03T16:19:59.342Z,99324.25
2022-11-03T16:23:00.993Z,99333.41
2022-11-03T16:26:05.494Z,99331.31
2022-11-03T16:29:07.149Z,99342.44
2022-11-03T16:32:08.919Z,99328.94
2022-11-03T16:35:10.689Z,99319.69
2022-11-03T16:38:15.093Z,99325.97
2022-11-03T16:41:18.114Z,99321.03
2022-11-03T16:44:19.738Z,99317.72
2022-11-03T16:47:21.608Z,99323.34
2022-11-03T16:50:23.302Z,99328.81
2022-11-03T16:53:25.455Z,99331.78
2022-11-03T16:56:28.556Z,99341.63
2022-11-03T16:59:30.218Z,99349.25
2022-11-03T17:02:31.956Z,99331.56
2022-11-03T17:05:34.604Z,99325.94
2022-11-03T17:08:52.354Z,99320.00
2022-11-03T17:11:56.087Z,99313.69
2022-11-03T17:14:58.514Z,99292.69
2022-11-03T17:18:00.268Z,99284.69
2022-11-03T17:21:01.951Z,99269.69
2022-11-03T17:24:06.581Z,99250.38
2022-11-03T17:27:14.701Z,99240.13
2022-11-03T17:30:19.995Z,99236.00
2022-11-03T17:33:22.958Z,99229.13
2022-11-03T17:36:24.635Z,99239.44
2022-11-03T17:39:30.229Z,99224.09
2022-11-03T17:42:33.490Z,99211.72
2022-11-03T17:45:35.167Z,99195.97
2022-11-03T17:48:37.143Z,99190.63
2022-11-03T17:51:41.977Z,99191.78
2022-11-03T17:54:43.752Z,99179.09
2022-11-03T17:57:47.867Z,99168.34
2022-11-03T18:00:49.674Z,99164.22
2022-11-03T18:03:52.129Z,99163.75
2022-11-03T18:06:53.742Z,99156.25
2022-11-03T18:09:58.295Z,99148.41
2022-11-03T18:13:24.722Z,99151.09
2022-11-03T18:16:26.525Z,99171.91
2022-11-03T18:19:28.459Z,99182.53
2022-11-03T18:22:30.116Z,99183.56
2022-11-03T18:25:31.797Z,99179.16
2022-11-03T18:28:34.834Z,99175.53
2022-11-03T18:31:38.984Z,99179.44
2022-11-03T18:34:41.857Z,99180.44
2022-11-03T18:37:45.151Z,99176.91
2022-11-03T18:40:47.061Z,99180.69
2022-11-03T18:43:50.070Z,99169.97
2022-11-03T18:46:52.813Z,99170.25
2022-11-03T18:49:54.598Z,99181.06
2022-11-03T18:52:56.265Z,99165.72
2022-11-03T18:56:00.642Z,99153.34
2022-11-03T18:59:03.816Z,99146.50
2022-11-03T19:02:15.091Z,99151.94
2022-11-03T19:05:18.260Z,99153.81
2022-11-03T19:08:23.679Z,99160.84
2022-11-03T19:11:26.186Z,99161.03
2022-11-03T19:14:32.820Z,99155.78
2022-11-03T19:17:36.010Z,99160.59
2022-11-03T19:20:37.926Z,99163.56
2022-11-03T19:23:39.657Z,99162.69
2022-11-03T19:26:44.932Z,99168.25
2022-11-03T19:29:48.907Z,99165.66
2022-11-03T19:32:53.274Z,99161.41
2022-11-03T19:35:55.259Z,99145.31
2022-11-03T19:38:57.730Z,99142.47
2022-11-03T19:42:20.571Z,99138.25
2022-11-03T19:45:24.316Z,99133.72
2022-11-03T19:48:29.509Z,99140.56
2022-11-03T19:51:36.647Z,99141.06
2022-11-03T19:54:38.315Z,99133.97
2022-11-03T19:57:40.020Z,99137.72
2022-11-03T20:00:43.528Z,99136.38
2022-11-03T20:03:45.182Z,99132.22
2022-11-03T20:06:46.960Z,99118.75
2022-11-03T20:09:48.650Z,99118.56
2022-11-03T20:12:50.334Z,99115.56
2022-11-03T20:15:58.979Z,99115.00
2022-11-03T20:19:03.210Z,99116.28
2022-11-03T20:22:07.184Z,99100.09
2022-11-03T20:25:17.760Z,99099.31
2022-11-03T20:28:21.818Z,99087.03
2022-11-03T20:31:25.374Z,99090.97
2022-11-03T20:34:27.113Z,99083.63
2022-11-03T20:37:28.853Z,99091.00
2022-11-03T20:40:31.663Z,99081.47
2022-11-03T20:43:38.825Z,99092.69
2022-11-03T20:46:42.826Z,99081.03
2022-11-03T20:49:44.625Z,99087.13
2022-11-03T20:52:47.781Z,99085.28
2022-11-03T20:55:50.374Z,99078.19
2022-11-03T20:58:52.354Z,99066.34
2022-11-03T21:01:55.607Z,99069.16
2022-11-03T21:04:57.863Z,99062.91
2022-11-03T21:07:59.510Z,99056.59
2022-11-03T21:11:27.398Z,99046.69
2022-11-03T21:14:30.498Z,99049.31
2022-11-03T21:17:51.947Z,99049.31
2022-11-03T21:20:53.609Z,99061.88
2022-11-03T21:23:55.257Z,99070.34
2022-11-03T21:26:56.907Z,99076.75
2022-11-03T21:30:00.003Z,99071.19
2022-11-03T21:33:03.449Z,99078.72
2022-11-03T21:36:05.887Z,99092.09
2022-11-03T21:39:07.624Z,99099.38
2022-11-03T21:42:28.626Z,99114.16
2022-11-03T21:45:30.360Z,99109.91
2022-11-03T21:48:51.902Z,99115.66
2022-11-03T21:51:53.619Z,99123.66
2022-11-03T21:54:55.334Z,99088.44
2022-11-03T21:57:56.910Z,99054.41
2022-11-03T22:01:00.765Z,99060.75
2022-11-03T22:04:04.274Z,99092.94
2022-11-03T22:07:06.554Z,99132.72
2022-11-03T22:10:09.003Z,99139.38
2022-11-03T22:13:11.269Z,99165.53
2022-11-03T22:16:31.977Z,99170.78
2022-11-03T22:19:53.344Z,99171.53
2022-11-03T22:23:13.870Z,99171.53
2022-11-03T22:26:35.216Z,99171.97
2022-11-03T22:29:55.493Z,99158.81
2022-11-03T22:32:58.002Z,99167.38
2022-11-03T22:36:21.894Z,99178.16
2022-11-03T22:39:42.441Z,99178.16
2022-11-03T22:43:03.065Z,99182.25
2022-11-03T22:46:04.740Z,99188.22
2022-11-03T22:49:06.366Z,99187.19
2022-11-03T22:52:10.095Z,99215.28
2022-11-03T22:55:11.757Z,99207.66
2022-11-03T22:58:13.519Z,99200.34
2022-11-03T23:01:17.198Z,99212.34
2022-11-03T23:04:18.924Z,99216.44
2022-11-03T23:07:23.777Z,99222.63
2022-11-03T23:10:28.419Z,99226.06
2022-11-03T23:13:30.119Z,99229.16
2022-11-03T23:16:33.449Z,99230.50
2022-11-03T23:19:53.668Z,99242.84
2022-11-03T23:23:44.577Z,99242.16
2022-11-03T23:26:46.818Z,99239.53
2022-11-03T23:29:48.564Z,99239.66
2022-11-03T23:32:50.226Z,99237.69
2022-11-03T23:35:51.910Z,99236.69
2022-11-03T23:38:55.340Z,99248.78
2022-11-03T23:41:57.047Z,99259.50
2022-11-03T23:45:17.416Z,99260.91
2022-11-03T23:48:37.609Z,99276.00
2022-11-03T23:51:39.962Z,99290.81
2022-11-03T23:54:43.026Z,99288.31
2022-11-03T23:58:03.094Z,99297.13
